sensor_id;sensor_type;location;lat;lon;timestamp;P1;durP1;ratioP1;P2;durP2;ratioP2
43363;SDS011;40636;52.424;-1.948;2022-08-07T00:00:22;2.42;;;1.20;;
43363;SDS011;40636;52.424;-1.948;2022-08-07T00:02:51;2.17;;;1.38;;
43363;SDS011;40636;52.424;-1.948;2022-08-07T00:05:21;2.35;;;1.48;;
43363;SDS011;40636;52.424;-1.948;2022-08-07T00:07:49;3.05;;;1.30;;
43363;SDS011;40636;52.424;-1.948;2022-08-07T00:10:26;1.55;;;0.98;;
43363;SDS011;40636;52.424;-1.948;2022-08-07T00:12:56;6.90;;;1.63;;
43363;SDS011;40636;52.424;-1.948;2022-08-07T00:15:35;7.65;;;1.38;;
43363;SDS011;40636;52.424;-1.948;2022-08-07T00:18:13;3.60;;;1.45;;
43363;SDS011;40636;52.424;-1.948;2022-08-07T00:20:49;1.73;;;1.35;;
43363;SDS011;40636;52.424;-1.948;2022-08-07T00:23:16;2.97;;;1.52;;
43363;SDS011;40636;52.424;-1.948;2022-08-07T00:25:46;3.88;;;1.80;;
43363;SDS011;40636;52.424;-1.948;2022-08-07T00:28:26;2.60;;;1.60;;
43363;SDS011;40636;52.424;-1.948;2022-08-07T00:31:00;3.67;;;1.30;;
43363;SDS011;40636;52.424;-1.948;2022-08-07T00:33:38;1.95;;;1.17;;
43363;SDS011;40636;52.424;-1.948;2022-08-07T00:36:06;1.95;;;1.20;;
43363;SDS011;40636;52.424;-1.948;2022-08-07T00:38:35;3.75;;;1.23;;
43363;SDS011;40636;52.424;-1.948;2022-08-07T00:41:04;2.72;;;1.58;;
43363;SDS011;40636;52.424;-1.948;2022-08-07T00:43:41;2.88;;;1.83;;
43363;SDS011;40636;52.424;-1.948;2022-08-07T00:46:27;2.17;;;1.52;;
43363;SDS011;40636;52.424;-1.948;2022-08-07T00:48:54;2.30;;;1.30;;
43363;SDS011;40636;52.424;-1.948;2022-08-07T00:51:27;2.42;;;1.35;;
43363;SDS011;40636;52.424;-1.948;2022-08-07T00:54:15;4.47;;;1.80;;
43363;SDS011;40636;52.424;-1.948;2022-08-07T00:56:45;2.65;;;1.60;;
43363;SDS011;40636;52.424;-1.948;2022-08-07T00:59:16;2.90;;;1.20;;
43363;SDS011;40636;52.424;-1.948;2022-08-07T01:01:57;1.90;;;1.30;;
43363;SDS011;40636;52.424;-1.948;2022-08-07T01:04:25;1.83;;;1.30;;
43363;SDS011;40636;52.424;-1.948;2022-08-07T01:06:55;7.57;;;2.88;;
43363;SDS011;40636;52.424;-1.948;2022-08-07T01:09:22;1.80;;;1.50;;
43363;SDS011;40636;52.424;-1.948;2022-08-07T01:12:10;3.92;;;1.42;;
43363;SDS011;40636;52.424;-1.948;2022-08-07T01:14:56;2.08;;;1.70;;
43363;SDS011;40636;52.424;-1.948;2022-08-07T01:17:27;3.65;;;1.92;;
43363;SDS011;40636;52.424;-1.948;2022-08-07T01:19:55;4.03;;;1.60;;
43363;SDS011;40636;52.424;-1.948;2022-08-07T01:22:28;2.00;;;1.33;;
43363;SDS011;40636;52.424;-1.948;2022-08-07T01:24:56;1.98;;;1.35;;
43363;SDS011;40636;52.424;-1.948;2022-08-07T01:27:25;4.60;;;1.83;;
43363;SDS011;40636;52.424;-1.948;2022-08-07T01:29:57;3.65;;;1.50;;
43363;SDS011;40636;52.424;-1.948;2022-08-07T01:32:26;1.67;;;1.17;;
43363;SDS011;40636;52.424;-1.948;2022-08-07T01:34:54;1.67;;;1.23;;
43363;SDS011;40636;52.424;-1.948;2022-08-07T01:37:22;2.00;;;1.55;;
43363;SDS011;40636;52.424;-1.948;2022-08-07T01:39:50;2.30;;;1.42;;
43363;SDS011;40636;52.424;-1.948;2022-08-07T01:42:18;1.98;;;1.50;;
43363;SDS011;40636;52.424;-1.948;2022-08-07T01:45:05;2.55;;;1.60;;
43363;SDS011;40636;52.424;-1.948;2022-08-07T01:47:43;4.53;;;1.92;;
43363;SDS011;40636;52.424;-1.948;2022-08-07T01:50:30;4.13;;;1.92;;
43363;SDS011;40636;52.424;-1.948;2022-08-07T01:52:58;2.90;;;1.98;;
43363;SDS011;40636;52.424;-1.948;2022-08-07T01:56:24;2.60;;;1.70;;
43363;SDS011;40636;52.424;-1.948;2022-08-07T01:58:30;3.25;;;1.30;;
43363;SDS011;40636;52.424;-1.948;2022-08-07T02:01:13;2.20;;;1.55;;
43363;SDS011;40636;52.424;-1.948;2022-08-07T02:04:07;4.47;;;1.83;;
43363;SDS011;40636;52.424;-1.948;2022-08-07T02:06:41;2.33;;;1.65;;
43363;SDS011;40636;52.424;-1.948;2022-08-07T02:09:12;4.00;;;2.10;;
43363;SDS011;40636;52.424;-1.948;2022-08-07T02:12:03;3.17;;;1.65;;
43363;SDS011;40636;52.424;-1.948;2022-08-07T02:14:47;3.13;;;1.60;;
43363;SDS011;40636;52.424;-1.948;2022-08-07T02:17:18;2.47;;;1.70;;
43363;SDS011;40636;52.424;-1.948;2022-08-07T02:19:53;2.53;;;1.90;;
43363;SDS011;40636;52.424;-1.948;2022-08-07T02:22:32;3.65;;;1.70;;
43363;SDS011;40636;52.424;-1.948;2022-08-07T02:25:07;2.25;;;1.80;;
43363;SDS011;40636;52.424;-1.948;2022-08-07T02:27:43;2.50;;;1.63;;
43363;SDS011;40636;52.424;-1.948;2022-08-07T02:30:17;2.40;;;1.65;;
43363;SDS011;40636;52.424;-1.948;2022-08-07T02:32:44;2.63;;;1.65;;
43363;SDS011;40636;52.424;-1.948;2022-08-07T02:35:35;3.25;;;1.70;;
43363;SDS011;40636;52.424;-1.948;2022-08-07T02:38:24;4.07;;;1.70;;
43363;SDS011;40636;52.424;-1.948;2022-08-07T02:40:58;2.63;;;2.17;;
43363;SDS011;40636;52.424;-1.948;2022-08-07T02:43:29;4.85;;;1.58;;
43363;SDS011;40636;52.424;-1.948;2022-08-07T02:45:57;2.40;;;1.48;;
43363;SDS011;40636;52.424;-1.948;2022-08-07T02:48:28;3.08;;;1.98;;
43363;SDS011;40636;52.424;-1.948;2022-08-07T02:50:56;2.22;;;1.60;;
43363;SDS011;40636;52.424;-1.948;2022-08-07T02:53:30;3.35;;;2.03;;
43363;SDS011;40636;52.424;-1.948;2022-08-07T02:56:03;2.95;;;1.77;;
43363;SDS011;40636;52.424;-1.948;2022-08-07T02:58:47;3.03;;;1.70;;
43363;SDS011;40636;52.424;-1.948;2022-08-07T03:01:20;2.45;;;1.70;;
43363;SDS011;40636;52.424;-1.948;2022-08-07T03:04:02;3.17;;;1.65;;
43363;SDS011;40636;52.424;-1.948;2022-08-07T03:06:37;3.42;;;1.92;;
43363;SDS011;40636;52.424;-1.948;2022-08-07T03:09:05;2.50;;;1.70;;
43363;SDS011;40636;52.424;-1.948;2022-08-07T03:11:36;2.25;;;1.80;;
43363;SDS011;40636;52.424;-1.948;2022-08-07T03:14:17;2.53;;;1.77;;
43363;SDS011;40636;52.424;-1.948;2022-08-07T03:16:48;2.95;;;1.98;;
43363;SDS011;40636;52.424;-1.948;2022-08-07T03:19:17;2.40;;;1.65;;
43363;SDS011;40636;52.424;-1.948;2022-08-07T03:21:46;2.55;;;1.80;;
43363;SDS011;40636;52.424;-1.948;2022-08-07T03:24:16;4.60;;;2.28;;
43363;SDS011;40636;52.424;-1.948;2022-08-07T03:26:52;4.05;;;2.00;;
43363;SDS011;40636;52.424;-1.948;2022-08-07T03:29:29;2.63;;;2.20;;
43363;SDS011;40636;52.424;-1.948;2022-08-07T03:32:03;3.97;;;2.17;;
43363;SDS011;40636;52.424;-1.948;2022-08-07T03:34:38;2.15;;;1.95;;
43363;SDS011;40636;52.424;-1.948;2022-08-07T03:37:26;3.50;;;1.90;;
43363;SDS011;40636;52.424;-1.948;2022-08-07T03:39:58;6.63;;;1.65;;
43363;SDS011;40636;52.424;-1.948;2022-08-07T03:42:42;2.03;;;1.80;;
43363;SDS011;40636;52.424;-1.948;2022-08-07T03:45:09;2.65;;;1.30;;
43363;SDS011;40636;52.424;-1.948;2022-08-07T03:47:55;3.95;;;1.95;;
43363;SDS011;40636;52.424;-1.948;2022-08-07T03:50:23;3.13;;;2.05;;
43363;SDS011;40636;52.424;-1.948;2022-08-07T03:52:55;2.22;;;1.70;;
43363;SDS011;40636;52.424;-1.948;2022-08-07T03:55:25;2.35;;;1.98;;
43363;SDS011;40636;52.424;-1.948;2022-08-07T03:58:15;2.58;;;1.60;;
43363;SDS011;40636;52.424;-1.948;2022-08-07T04:01:03;3.10;;;1.83;;
43363;SDS011;40636;52.424;-1.948;2022-08-07T04:03:36;2.00;;;1.80;;
43363;SDS011;40636;52.424;-1.948;2022-08-07T04:06:19;3.17;;;1.80;;
43363;SDS011;40636;52.424;-1.948;2022-08-07T04:09:04;6.68;;;2.05;;
43363;SDS011;40636;52.424;-1.948;2022-08-07T04:11:33;2.25;;;1.50;;
43363;SDS011;40636;52.424;-1.948;2022-08-07T04:14:21;2.38;;;1.63;;
43363;SDS011;40636;52.424;-1.948;2022-08-07T04:17:08;3.03;;;1.80;;
43363;SDS011;40636;52.424;-1.948;2022-08-07T04:19:46;3.17;;;1.50;;
43363;SDS011;40636;52.424;-1.948;2022-08-07T04:22:20;1.73;;;1.50;;
43363;SDS011;40636;52.424;-1.948;2022-08-07T04:24:52;2.85;;;1.60;;
43363;SDS011;40636;52.424;-1.948;2022-08-07T04:27:23;2.08;;;1.75;;
43363;SDS011;40636;52.424;-1.948;2022-08-07T04:29:51;4.47;;;1.73;;
43363;SDS011;40636;52.424;-1.948;2022-08-07T04:32:27;5.43;;;2.15;;
43363;SDS011;40636;52.424;-1.948;2022-08-07T04:35:00;1.92;;;1.42;;
43363;SDS011;40636;52.424;-1.948;2022-08-07T04:37:31;1.60;;;1.30;;
43363;SDS011;40636;52.424;-1.948;2022-08-07T04:40:20;2.03;;;1.45;;
43363;SDS011;40636;52.424;-1.948;2022-08-07T04:42:52;3.20;;;1.88;;
43363;SDS011;40636;52.424;-1.948;2022-08-07T04:45:18;2.90;;;1.63;;
43363;SDS011;40636;52.424;-1.948;2022-08-07T04:48:16;3.08;;;1.52;;
43363;SDS011;40636;52.424;-1.948;2022-08-07T04:51:04;2.28;;;1.85;;
43363;SDS011;40636;52.424;-1.948;2022-08-07T04:59:42;2.45;;;1.75;;
43363;SDS011;40636;52.424;-1.948;2022-08-07T05:02:53;2.22;;;1.60;;
43363;SDS011;40636;52.424;-1.948;2022-08-07T05:05:39;2.83;;;1.50;;
43363;SDS011;40636;52.424;-1.948;2022-08-07T05:11:18;2.35;;;1.65;;
43363;SDS011;40636;52.424;-1.948;2022-08-07T05:13:57;2.30;;;1.77;;
43363;SDS011;40636;52.424;-1.948;2022-08-07T05:16:48;2.45;;;1.55;;
43363;SDS011;40636;52.424;-1.948;2022-08-07T05:19:19;2.45;;;1.77;;
43363;SDS011;40636;52.424;-1.948;2022-08-07T05:22:09;1.85;;;1.40;;
43363;SDS011;40636;52.424;-1.948;2022-08-07T05:24:52;2.60;;;1.80;;
43363;SDS011;40636;52.424;-1.948;2022-08-07T05:27:25;2.08;;;1.38;;
43363;SDS011;40636;52.424;-1.948;2022-08-07T05:30:13;3.53;;;1.70;;
43363;SDS011;40636;52.424;-1.948;2022-08-07T05:32:55;2.17;;;1.60;;
43363;SDS011;40636;52.424;-1.948;2022-08-07T05:35:27;2.10;;;1.58;;
43363;SDS011;40636;52.424;-1.948;2022-08-07T05:37:59;2.20;;;1.80;;
43363;SDS011;40636;52.424;-1.948;2022-08-07T05:40:35;1.90;;;1.42;;
43363;SDS011;40636;52.424;-1.948;2022-08-07T05:43:17;2.83;;;1.50;;
43363;SDS011;40636;52.424;-1.948;2022-08-07T05:46:04;2.08;;;1.60;;
43363;SDS011;40636;52.424;-1.948;2022-08-07T05:48:32;2.58;;;1.48;;
43363;SDS011;40636;52.424;-1.948;2022-08-07T05:51:00;1.70;;;1.38;;
43363;SDS011;40636;52.424;-1.948;2022-08-07T05:53:28;2.00;;;1.55;;
43363;SDS011;40636;52.424;-1.948;2022-08-07T05:56:17;6.72;;;2.83;;
43363;SDS011;40636;52.424;-1.948;2022-08-07T05:58:55;3.55;;;1.60;;
43363;SDS011;40636;52.424;-1.948;2022-08-07T06:01:27;1.90;;;1.60;;
43363;SDS011;40636;52.424;-1.948;2022-08-07T06:04:01;2.25;;;1.85;;
43363;SDS011;40636;52.424;-1.948;2022-08-07T06:06:30;2.47;;;1.42;;
43363;SDS011;40636;52.424;-1.948;2022-08-07T06:09:00;8.18;;;1.90;;
43363;SDS011;40636;52.424;-1.948;2022-08-07T06:11:31;2.10;;;1.50;;
43363;SDS011;40636;52.424;-1.948;2022-08-07T06:13:59;5.40;;;1.60;;
43363;SDS011;40636;52.424;-1.948;2022-08-07T06:19:20;2.15;;;1.42;;
43363;SDS011;40636;52.424;-1.948;2022-08-07T06:22:08;2.15;;;1.98;;
43363;SDS011;40636;52.424;-1.948;2022-08-07T06:24:49;1.75;;;1.40;;
43363;SDS011;40636;52.424;-1.948;2022-08-07T06:27:26;2.08;;;1.23;;
43363;SDS011;40636;52.424;-1.948;2022-08-07T06:30:13;3.03;;;1.55;;
43363;SDS011;40636;52.424;-1.948;2022-08-07T06:33:00;2.17;;;1.05;;
43363;SDS011;40636;52.424;-1.948;2022-08-07T06:35:29;1.42;;;1.10;;
43363;SDS011;40636;52.424;-1.948;2022-08-07T06:38:16;2.42;;;1.33;;
43363;SDS011;40636;52.424;-1.948;2022-08-07T06:40:46;1.23;;;0.80;;
43363;SDS011;40636;52.424;-1.948;2022-08-07T06:43:19;0.85;;;0.75;;
43363;SDS011;40636;52.424;-1.948;2022-08-07T06:45:49;0.70;;;0.70;;
43363;SDS011;40636;52.424;-1.948;2022-08-07T06:48:17;1.55;;;0.90;;
43363;SDS011;40636;52.424;-1.948;2022-08-07T06:50:51;1.60;;;0.80;;
43363;SDS011;40636;52.424;-1.948;2022-08-07T06:53:20;1.17;;;0.90;;
43363;SDS011;40636;52.424;-1.948;2022-08-07T06:56:10;2.92;;;1.50;;
43363;SDS011;40636;52.424;-1.948;2022-08-07T06:58:41;1.27;;;1.10;;
43363;SDS011;40636;52.424;-1.948;2022-08-07T07:01:30;3.42;;;1.00;;
43363;SDS011;40636;52.424;-1.948;2022-08-07T07:04:14;1.52;;;1.00;;
43363;SDS011;40636;52.424;-1.948;2022-08-07T07:07:00;1.50;;;1.10;;
43363;SDS011;40636;52.424;-1.948;2022-08-07T07:09:45;2.40;;;0.88;;
43363;SDS011;40636;52.424;-1.948;2022-08-07T07:12:18;2.17;;;1.65;;
43363;SDS011;40636;52.424;-1.948;2022-08-07T07:15:03;4.78;;;0.80;;
43363;SDS011;40636;52.424;-1.948;2022-08-07T07:17:53;1.75;;;1.00;;
43363;SDS011;40636;52.424;-1.948;2022-08-07T07:20:26;2.47;;;1.13;;
43363;SDS011;40636;52.424;-1.948;2022-08-07T07:23:01;1.65;;;0.80;;
43363;SDS011;40636;52.424;-1.948;2022-08-07T07:25:50;1.60;;;0.90;;
43363;SDS011;40636;52.424;-1.948;2022-08-07T07:28:53;1.08;;;0.95;;
43363;SDS011;40636;52.424;-1.948;2022-08-07T07:31:45;1.25;;;0.93;;
43363;SDS011;40636;52.424;-1.948;2022-08-07T07:34:18;1.55;;;0.88;;
43363;SDS011;40636;52.424;-1.948;2022-08-07T07:36:57;2.13;;;1.25;;
43363;SDS011;40636;52.424;-1.948;2022-08-07T07:39:46;1.80;;;0.95;;
43363;SDS011;40636;52.424;-1.948;2022-08-07T07:42:20;0.85;;;0.85;;
43363;SDS011;40636;52.424;-1.948;2022-08-07T07:44:59;2.10;;;0.82;;
43363;SDS011;40636;52.424;-1.948;2022-08-07T07:47:28;1.08;;;0.85;;
43363;SDS011;40636;52.424;-1.948;2022-08-07T07:50:15;1.58;;;1.00;;
43363;SDS011;40636;52.424;-1.948;2022-08-07T07:53:03;1.05;;;0.95;;
43363;SDS011;40636;52.424;-1.948;2022-08-07T07:55:46;1.10;;;0.80;;
43363;SDS011;40636;52.424;-1.948;2022-08-07T07:58:23;2.20;;;0.75;;
43363;SDS011;40636;52.424;-1.948;2022-08-07T08:00:55;1.75;;;0.82;;
43363;SDS011;40636;52.424;-1.948;2022-08-07T08:03:24;1.58;;;0.90;;
43363;SDS011;40636;52.424;-1.948;2022-08-07T08:06:14;0.98;;;0.88;;
43363;SDS011;40636;52.424;-1.948;2022-08-07T08:08:46;1.63;;;0.70;;
43363;SDS011;40636;52.424;-1.948;2022-08-07T08:11:16;0.80;;;0.80;;
43363;SDS011;40636;52.424;-1.948;2022-08-07T08:14:03;1.70;;;1.00;;
43363;SDS011;40636;52.424;-1.948;2022-08-07T08:16:38;2.10;;;1.15;;
43363;SDS011;40636;52.424;-1.948;2022-08-07T08:19:16;1.13;;;0.75;;
43363;SDS011;40636;52.424;-1.948;2022-08-07T08:22:11;4.55;;;1.10;;
43363;SDS011;40636;52.424;-1.948;2022-08-07T08:24:58;1.63;;;1.20;;
43363;SDS011;40636;52.424;-1.948;2022-08-07T08:28:08;1.27;;;1.10;;
43363;SDS011;40636;52.424;-1.948;2022-08-07T08:30:51;1.90;;;1.20;;
43363;SDS011;40636;52.424;-1.948;2022-08-07T08:33:21;4.35;;;1.25;;
43363;SDS011;40636;52.424;-1.948;2022-08-07T08:35:54;1.75;;;0.93;;
43363;SDS011;40636;52.424;-1.948;2022-08-07T08:38:25;3.58;;;1.42;;
43363;SDS011;40636;52.424;-1.948;2022-08-07T08:41:12;1.88;;;0.90;;
43363;SDS011;40636;52.424;-1.948;2022-08-07T08:44:01;2.28;;;1.05;;
43363;SDS011;40636;52.424;-1.948;2022-08-07T08:47:26;2.90;;;1.13;;
43363;SDS011;40636;52.424;-1.948;2022-08-07T08:53:11;1.83;;;1.13;;
43363;SDS011;40636;52.424;-1.948;2022-08-07T09:04:21;1.25;;;0.98;;
43363;SDS011;40636;52.424;-1.948;2022-08-07T09:13:31;3.30;;;1.60;;
43363;SDS011;40636;52.424;-1.948;2022-08-07T09:16:23;1.25;;;1.13;;
43363;SDS011;40636;52.424;-1.948;2022-08-07T09:28:09;7.93;;;1.55;;
43363;SDS011;40636;52.424;-1.948;2022-08-07T09:34:10;3.50;;;1.20;;
43363;SDS011;40636;52.424;-1.948;2022-08-07T09:37:32;1.40;;;0.77;;
43363;SDS011;40636;52.424;-1.948;2022-08-07T09:42:51;3.72;;;1.00;;
43363;SDS011;40636;52.424;-1.948;2022-08-07T09:48:45;1.70;;;0.88;;
43363;SDS011;40636;52.424;-1.948;2022-08-07T09:55:03;2.90;;;1.13;;
43363;SDS011;40636;52.424;-1.948;2022-08-07T09:58:22;1.85;;;1.20;;
43363;SDS011;40636;52.424;-1.948;2022-08-07T10:01:19;1.60;;;1.10;;
43363;SDS011;40636;52.424;-1.948;2022-08-07T10:07:24;4.20;;;1.30;;
43363;SDS011;40636;52.424;-1.948;2022-08-07T10:16:37;1.38;;;1.17;;
43363;SDS011;40636;52.424;-1.948;2022-08-07T10:19:34;5.05;;;1.42;;
43363;SDS011;40636;52.424;-1.948;2022-08-07T10:39:32;3.45;;;1.20;;
43363;SDS011;40636;52.424;-1.948;2022-08-07T10:42:35;1.67;;;0.90;;
43363;SDS011;40636;52.424;-1.948;2022-08-07T10:51:06;2.33;;;1.00;;
43363;SDS011;40636;52.424;-1.948;2022-08-07T10:54:12;3.55;;;1.10;;
43363;SDS011;40636;52.424;-1.948;2022-08-07T11:05:35;3.40;;;1.00;;
43363;SDS011;40636;52.424;-1.948;2022-08-07T11:11:00;2.38;;;1.30;;
43363;SDS011;40636;52.424;-1.948;2022-08-07T11:13:38;2.15;;;1.30;;
43363;SDS011;40636;52.424;-1.948;2022-08-07T11:16:33;3.35;;;1.10;;
43363;SDS011;40636;52.424;-1.948;2022-08-07T11:22:06;1.42;;;1.10;;
43363;SDS011;40636;52.424;-1.948;2022-08-07T11:28:17;1.63;;;0.85;;
43363;SDS011;40636;52.424;-1.948;2022-08-07T11:33:20;1.63;;;0.90;;
43363;SDS011;40636;52.424;-1.948;2022-08-07T11:39:03;2.58;;;1.00;;
43363;SDS011;40636;52.424;-1.948;2022-08-07T11:41:54;2.00;;;0.90;;
43363;SDS011;40636;52.424;-1.948;2022-08-07T11:44:38;5.97;;;1.30;;
43363;SDS011;40636;52.424;-1.948;2022-08-07T12:09:33;1.45;;;1.00;;
43363;SDS011;40636;52.424;-1.948;2022-08-07T12:12:12;1.88;;;0.95;;
43363;SDS011;40636;52.424;-1.948;2022-08-07T12:18:14;2.30;;;1.42;;
43363;SDS011;40636;52.424;-1.948;2022-08-07T12:24:03;1.23;;;0.90;;
43363;SDS011;40636;52.424;-1.948;2022-08-07T12:26:57;1.27;;;0.82;;
43363;SDS011;40636;52.424;-1.948;2022-08-07T12:29:44;1.23;;;1.13;;
43363;SDS011;40636;52.424;-1.948;2022-08-07T12:35:09;1.20;;;1.10;;
43363;SDS011;40636;52.424;-1.948;2022-08-07T12:37:39;3.10;;;1.17;;
43363;SDS011;40636;52.424;-1.948;2022-08-07T12:40:29;3.90;;;0.88;;
43363;SDS011;40636;52.424;-1.948;2022-08-07T12:43:19;4.43;;;1.35;;
43363;SDS011;40636;52.424;-1.948;2022-08-07T12:49:21;2.78;;;0.88;;
43363;SDS011;40636;52.424;-1.948;2022-08-07T12:52:19;2.03;;;1.00;;
43363;SDS011;40636;52.424;-1.948;2022-08-07T12:55:17;0.88;;;0.70;;
43363;SDS011;40636;52.424;-1.948;2022-08-07T12:58:11;1.42;;;0.90;;
43363;SDS011;40636;52.424;-1.948;2022-08-07T13:01:06;2.97;;;1.08;;
43363;SDS011;40636;52.424;-1.948;2022-08-07T13:09:41;1.45;;;0.90;;
43363;SDS011;40636;52.424;-1.948;2022-08-07T13:28:01;1.27;;;1.00;;
43363;SDS011;40636;52.424;-1.948;2022-08-07T13:30:53;1.37;;;1.07;;
43363;SDS011;40636;52.424;-1.948;2022-08-07T13:33:43;3.22;;;0.80;;
43363;SDS011;40636;52.424;-1.948;2022-08-07T13:36:55;2.05;;;0.88;;
43363;SDS011;40636;52.424;-1.948;2022-08-07T13:42:18;1.25;;;1.00;;
43363;SDS011;40636;52.424;-1.948;2022-08-07T13:44:51;1.00;;;0.85;;
43363;SDS011;40636;52.424;-1.948;2022-08-07T13:47:39;2.70;;;1.33;;
43363;SDS011;40636;52.424;-1.948;2022-08-07T13:50:27;1.10;;;1.00;;
43363;SDS011;40636;52.424;-1.948;2022-08-07T13:53:17;1.85;;;0.80;;
43363;SDS011;40636;52.424;-1.948;2022-08-07T13:56:10;4.25;;;0.85;;
43363;SDS011;40636;52.424;-1.948;2022-08-07T13:59:00;2.75;;;2.25;;
43363;SDS011;40636;52.424;-1.948;2022-08-07T14:01:32;1.25;;;1.08;;
43363;SDS011;40636;52.424;-1.948;2022-08-07T14:04:23;1.75;;;1.08;;
43363;SDS011;40636;52.424;-1.948;2022-08-07T14:07:02;3.10;;;0.75;;
43363;SDS011;40636;52.424;-1.948;2022-08-07T14:09:35;1.00;;;0.90;;
43363;SDS011;40636;52.424;-1.948;2022-08-07T14:12:45;1.40;;;1.02;;
43363;SDS011;40636;52.424;-1.948;2022-08-07T14:18:03;1.00;;;0.88;;
43363;SDS011;40636;52.424;-1.948;2022-08-07T14:20:52;1.70;;;0.90;;
43363;SDS011;40636;52.424;-1.948;2022-08-07T14:23:56;1.67;;;0.80;;
43363;SDS011;40636;52.424;-1.948;2022-08-07T14:26:39;1.10;;;0.85;;
43363;SDS011;40636;52.424;-1.948;2022-08-07T14:29:47;1.75;;;0.90;;
43363;SDS011;40636;52.424;-1.948;2022-08-07T14:32:37;1.50;;;0.73;;
43363;SDS011;40636;52.424;-1.948;2022-08-07T14:35:09;1.90;;;0.70;;
43363;SDS011;40636;52.424;-1.948;2022-08-07T14:38:01;0.82;;;0.75;;
43363;SDS011;40636;52.424;-1.948;2022-08-07T14:40:32;1.75;;;0.95;;
43363;SDS011;40636;52.424;-1.948;2022-08-07T14:43:11;15.95;;;1.90;;
43363;SDS011;40636;52.424;-1.948;2022-08-07T14:46:01;2.45;;;1.00;;
43363;SDS011;40636;52.424;-1.948;2022-08-07T14:48:30;2.25;;;0.80;;
43363;SDS011;40636;52.424;-1.948;2022-08-07T14:51:20;2.15;;;0.82;;
43363;SDS011;40636;52.424;-1.948;2022-08-07T14:54:13;1.98;;;1.10;;
43363;SDS011;40636;52.424;-1.948;2022-08-07T14:57:02;2.05;;;1.20;;
43363;SDS011;40636;52.424;-1.948;2022-08-07T14:59:33;2.42;;;1.00;;
43363;SDS011;40636;52.424;-1.948;2022-08-07T15:02:22;14.38;;;2.17;;
43363;SDS011;40636;52.424;-1.948;2022-08-07T15:04:59;1.60;;;0.90;;
43363;SDS011;40636;52.424;-1.948;2022-08-07T15:07:47;1.55;;;0.98;;
43363;SDS011;40636;52.424;-1.948;2022-08-07T15:10:35;0.98;;;0.82;;
43363;SDS011;40636;52.424;-1.948;2022-08-07T15:13:30;1.08;;;0.90;;
43363;SDS011;40636;52.424;-1.948;2022-08-07T15:16:03;2.17;;;1.40;;
43363;SDS011;40636;52.424;-1.948;2022-08-07T15:18:37;3.20;;;1.48;;
43363;SDS011;40636;52.424;-1.948;2022-08-07T15:21:22;1.85;;;1.33;;
43363;SDS011;40636;52.424;-1.948;2022-08-07T15:24:18;3.10;;;1.10;;
43363;SDS011;40636;52.424;-1.948;2022-08-07T15:27:11;0.85;;;0.85;;
43363;SDS011;40636;52.424;-1.948;2022-08-07T15:29:45;1.40;;;1.08;;
43363;SDS011;40636;52.424;-1.948;2022-08-07T15:32:39;1.65;;;0.80;;
43363;SDS011;40636;52.424;-1.948;2022-08-07T15:35:28;2.05;;;0.68;;
43363;SDS011;40636;52.424;-1.948;2022-08-07T15:38:19;3.53;;;1.00;;
43363;SDS011;40636;52.424;-1.948;2022-08-07T15:41:12;1.25;;;1.10;;
43363;SDS011;40636;52.424;-1.948;2022-08-07T15:44:06;1.67;;;0.93;;
43363;SDS011;40636;52.424;-1.948;2022-08-07T15:46:37;3.70;;;0.80;;
43363;SDS011;40636;52.424;-1.948;2022-08-07T15:49:24;1.08;;;0.73;;
43363;SDS011;40636;52.424;-1.948;2022-08-07T15:52:18;2.10;;;1.27;;
43363;SDS011;40636;52.424;-1.948;2022-08-07T15:54:57;2.05;;;0.85;;
43363;SDS011;40636;52.424;-1.948;2022-08-07T15:57:29;1.08;;;0.95;;
43363;SDS011;40636;52.424;-1.948;2022-08-07T16:00:14;4.57;;;1.00;;
43363;SDS011;40636;52.424;-1.948;2022-08-07T16:03:05;0.70;;;0.70;;
43363;SDS011;40636;52.424;-1.948;2022-08-07T16:05:57;2.55;;;0.90;;
43363;SDS011;40636;52.424;-1.948;2022-08-07T16:08:27;2.05;;;1.10;;
43363;SDS011;40636;52.424;-1.948;2022-08-07T16:11:05;1.92;;;1.00;;
43363;SDS011;40636;52.424;-1.948;2022-08-07T16:14:10;1.02;;;0.80;;
43363;SDS011;40636;52.424;-1.948;2022-08-07T16:25:10;5.20;;;1.23;;
43363;SDS011;40636;52.424;-1.948;2022-08-07T16:46:48;1.58;;;1.13;;
43363;SDS011;40636;52.424;-1.948;2022-08-07T16:55:59;1.55;;;1.20;;
43363;SDS011;40636;52.424;-1.948;2022-08-07T16:59:22;1.30;;;1.10;;
43363;SDS011;40636;52.424;-1.948;2022-08-07T17:04:36;2.25;;;0.75;;
43363;SDS011;40636;52.424;-1.948;2022-08-07T17:07:30;1.67;;;0.90;;
43363;SDS011;40636;52.424;-1.948;2022-08-07T17:21:45;2.58;;;1.20;;
43363;SDS011;40636;52.424;-1.948;2022-08-07T17:24:20;1.15;;;1.00;;
43363;SDS011;40636;52.424;-1.948;2022-08-07T17:27:09;1.67;;;1.10;;
43363;SDS011;40636;52.424;-1.948;2022-08-07T17:30:03;2.28;;;1.08;;
43363;SDS011;40636;52.424;-1.948;2022-08-07T17:38:22;1.83;;;0.93;;
43363;SDS011;40636;52.424;-1.948;2022-08-07T17:41:00;2.25;;;1.02;;
43363;SDS011;40636;52.424;-1.948;2022-08-07T17:47:12;2.05;;;1.10;;
43363;SDS011;40636;52.424;-1.948;2022-08-07T17:50:14;1.52;;;1.00;;
43363;SDS011;40636;52.424;-1.948;2022-08-07T17:52:52;3.22;;;1.45;;
43363;SDS011;40636;52.424;-1.948;2022-08-07T17:55:37;2.38;;;1.45;;
43363;SDS011;40636;52.424;-1.948;2022-08-07T17:58:38;1.67;;;1.08;;
43363;SDS011;40636;52.424;-1.948;2022-08-07T18:01:18;3.10;;;1.45;;
43363;SDS011;40636;52.424;-1.948;2022-08-07T18:06:55;1.45;;;0.95;;
43363;SDS011;40636;52.424;-1.948;2022-08-07T18:09:48;1.20;;;1.10;;
43363;SDS011;40636;52.424;-1.948;2022-08-07T18:12:39;4.40;;;1.20;;
43363;SDS011;40636;52.424;-1.948;2022-08-07T18:18:02;2.53;;;1.20;;
43363;SDS011;40636;52.424;-1.948;2022-08-07T18:21:03;1.40;;;1.02;;
43363;SDS011;40636;52.424;-1.948;2022-08-07T18:24:08;4.13;;;1.63;;
43363;SDS011;40636;52.424;-1.948;2022-08-07T18:30:09;3.53;;;1.60;;
43363;SDS011;40636;52.424;-1.948;2022-08-07T18:38:44;6.53;;;1.50;;
43363;SDS011;40636;52.424;-1.948;2022-08-07T18:47:50;1.55;;;1.10;;
43363;SDS011;40636;52.424;-1.948;2022-08-07T18:50:42;4.75;;;1.48;;
43363;SDS011;40636;52.424;-1.948;2022-08-07T18:53:27;2.28;;;0.90;;
43363;SDS011;40636;52.424;-1.948;2022-08-07T18:56:23;3.55;;;1.55;;
43363;SDS011;40636;52.424;-1.948;2022-08-07T19:05:26;2.80;;;1.42;;
43363;SDS011;40636;52.424;-1.948;2022-08-07T19:08:43;4.22;;;1.52;;
43363;SDS011;40636;52.424;-1.948;2022-08-07T19:11:16;3.90;;;1.48;;
43363;SDS011;40636;52.424;-1.948;2022-08-07T19:14:10;4.78;;;1.50;;
43363;SDS011;40636;52.424;-1.948;2022-08-07T19:16:50;4.82;;;1.70;;
43363;SDS011;40636;52.424;-1.948;2022-08-07T19:23:07;3.80;;;2.38;;
43363;SDS011;40636;52.424;-1.948;2022-08-07T19:26:12;4.35;;;2.28;;
43363;SDS011;40636;52.424;-1.948;2022-08-07T19:29:04;4.53;;;2.53;;
43363;SDS011;40636;52.424;-1.948;2022-08-07T19:31:58;2.83;;;1.42;;
43363;SDS011;40636;52.424;-1.948;2022-08-07T19:34:58;4.57;;;1.80;;
43363;SDS011;40636;52.424;-1.948;2022-08-07T19:37:32;1.73;;;1.35;;
43363;SDS011;40636;52.424;-1.948;2022-08-07T19:40:24;3.97;;;1.65;;
43363;SDS011;40636;52.424;-1.948;2022-08-07T19:42:58;4.20;;;2.37;;
43363;SDS011;40636;52.424;-1.948;2022-08-07T19:45:46;5.35;;;2.47;;
43363;SDS011;40636;52.424;-1.948;2022-08-07T19:51:09;6.80;;;2.95;;
43363;SDS011;40636;52.424;-1.948;2022-08-07T19:53:50;3.78;;;1.83;;
43363;SDS011;40636;52.424;-1.948;2022-08-07T19:56:44;2.92;;;1.77;;
43363;SDS011;40636;52.424;-1.948;2022-08-07T19:59:35;3.55;;;1.90;;
43363;SDS011;40636;52.424;-1.948;2022-08-07T20:02:08;5.70;;;2.00;;
43363;SDS011;40636;52.424;-1.948;2022-08-07T20:04:45;1.92;;;1.55;;
43363;SDS011;40636;52.424;-1.948;2022-08-07T20:07:17;2.53;;;1.80;;
43363;SDS011;40636;52.424;-1.948;2022-08-07T20:10:19;3.33;;;1.65;;
43363;SDS011;40636;52.424;-1.948;2022-08-07T20:13:13;2.83;;;1.20;;
43363;SDS011;40636;52.424;-1.948;2022-08-07T20:15:52;5.88;;;1.70;;
43363;SDS011;40636;52.424;-1.948;2022-08-07T20:18:23;2.55;;;1.20;;